Scallorn, Texas
Current Conditions -  °F | °C
As of 2:35 PM on Saturday 25 Oct 2014 (Local Time) from KLZZ Reporting Station
Clear Clear  
Wind Chill: 83°   Ceiling: Unl
Heat Index: 84°   Visibility: 10mi
Dew Point: 61°   Wind: 8mph
Humidity: 47%   Direction: 170°S
Pressure: 30.12"   Gusts: NA
Location:  31.2111°N, 98.4001°W
Report Text: KLZZ 251935Z AUTO 17007KT 10SM CLR 29/16 A3012 RMK AO2 T02850161
Loading
Personal Weather Stations






























Interactive Weather Map
Tropical Storm Tracking
New forecast layout! Learn more

10-Day Weather Forecast

Advertisements
Track Severe Weather on mobile